createdAt,value
2019-04-25T00:00:13.635Z,95913.05
2019-04-25T00:02:46.498Z,95916.58
2019-04-25T00:05:17.519Z,95904.59
2019-04-25T00:07:48.593Z,95896.47
2019-04-25T00:10:19.642Z,95902.45
2019-04-25T00:12:51.756Z,95895.97
2019-04-25T00:15:23.352Z,95891.34
2019-04-25T00:17:54.978Z,95892.84
2019-04-25T00:20:26.865Z,95886.79
2019-04-25T00:23:04.105Z,95888.55
2019-04-25T00:26:06.030Z,95883.47
2019-04-25T00:28:37.408Z,95888.61
2019-04-25T00:31:09.531Z,95890.35
2019-04-25T00:33:41.995Z,95895.90
2019-04-25T00:36:13.343Z,95903.36
2019-04-25T00:38:46.539Z,95906.00
2019-04-25T00:41:17.368Z,95898.45
2019-04-25T00:43:49.523Z,95900.05
2019-04-25T00:46:22.558Z,95895.05
2019-04-25T00:48:55.153Z,95893.45
2019-04-25T00:51:26.421Z,95895.27
2019-04-25T00:53:57.513Z,95898.13
2019-04-25T00:56:28.761Z,95902.09
2019-04-25T00:59:06.710Z,95894.55
2019-04-25T01:01:55.362Z,95894.55
2019-04-25T01:04:29.613Z,95901.73
2019-04-25T01:07:01.458Z,95896.83
2019-04-25T01:09:32.976Z,95906.42
2019-04-25T01:12:04.837Z,95910.96
2019-04-25T01:14:36.015Z,95912.06
2019-04-25T01:17:07.072Z,95908.64
2019-04-25T01:19:38.107Z,95913.61
2019-04-25T01:22:09.363Z,95906.84
2019-04-25T01:24:40.367Z,95908.89
2019-04-25T01:27:13.445Z,95915.25
2019-04-25T01:29:44.612Z,95908.44
2019-04-25T01:32:18.976Z,95908.20
2019-04-25T01:35:09.448Z,95909.06
2019-04-25T01:37:59.008Z,95914.14
2019-04-25T01:40:40.304Z,95918.75
2019-04-25T01:43:35.338Z,95922.11
2019-04-25T01:46:06.666Z,95914.59
2019-04-25T01:48:38.182Z,95916.02
2019-04-25T01:51:09.354Z,95919.25
2019-04-25T01:53:40.432Z,95916.83
2019-04-25T01:56:13.410Z,95913.78
2019-04-25T01:58:45.034Z,95917.73
2019-04-25T02:01:16.693Z,95917.73
2019-04-25T02:03:47.773Z,95919.41
2019-04-25T02:06:19.121Z,95935.00
2019-04-25T02:08:50.869Z,95938.02
2019-04-25T02:11:28.092Z,95936.92
2019-04-25T02:13:59.177Z,95944.17
2019-04-25T02:16:30.859Z,95948.80
2019-04-25T02:19:03.922Z,95951.95
2019-04-25T02:21:35.391Z,95955.90
2019-04-25T02:24:06.504Z,95957.91
2019-04-25T02:26:38.686Z,95956.80
2019-04-25T02:29:10.252Z,95961.31
2019-04-25T02:31:41.570Z,95960.02
2019-04-25T02:34:17.557Z,95959.38
2019-04-25T02:36:46.996Z,95965.35
2019-04-25T02:39:20.596Z,95958.23
2019-04-25T02:41:51.773Z,95956.63
2019-04-25T02:44:24.746Z,95959.55
2019-04-25T02:47:11.750Z,95960.80
2019-04-25T02:50:09.053Z,95960.22
2019-04-25T02:52:44.534Z,95963.30
2019-04-25T02:55:29.509Z,95955.12
2019-04-25T02:57:48.463Z,95964.94
2019-04-25T03:00:45.880Z,95966.02
2019-04-25T03:03:02.629Z,95957.36
2019-04-25T03:05:35.412Z,95965.81
2019-04-25T03:08:09.026Z,95972.18
2019-04-25T03:10:39.516Z,95975.02
2019-04-25T03:13:12.007Z,95974.64
2019-04-25T03:15:44.181Z,95967.61
2019-04-25T03:18:16.945Z,95973.64
2019-04-25T03:20:56.262Z,95971.95
2019-04-25T03:23:37.401Z,95973.71
2019-04-25T03:26:09.111Z,95974.08
2019-04-25T03:28:40.226Z,95971.78
2019-04-25T03:31:18.589Z,95972.34
2019-04-25T03:33:45.810Z,95973.71
2019-04-25T03:36:17.308Z,95974.92
2019-04-25T03:38:48.354Z,95969.66
2019-04-25T03:41:20.627Z,95965.59
2019-04-25T03:43:51.945Z,95963.89
2019-04-25T03:46:23.345Z,95956.04
2019-04-25T03:48:54.762Z,95953.52
2019-04-25T03:51:25.767Z,95951.44
2019-04-25T03:53:57.113Z,95939.27
2019-04-25T03:56:28.157Z,95921.16
2019-04-25T03:58:59.233Z,95902.31
2019-04-25T04:01:31.187Z,95895.50
2019-04-25T04:04:04.582Z,95891.45
2019-04-25T04:06:35.845Z,95887.92
2019-04-25T04:09:08.258Z,95885.84
2019-04-25T04:11:39.585Z,95889.62
2019-04-25T04:14:10.597Z,95894.61
2019-04-25T04:17:00.635Z,95915.79
2019-04-25T04:19:34.891Z,95933.18
2019-04-25T04:22:16.582Z,95949.20
2019-04-25T04:24:51.129Z,95961.04
2019-04-25T04:27:23.874Z,95963.44
2019-04-25T04:29:54.982Z,95959.09
2019-04-25T04:32:25.977Z,95966.20
2019-04-25T04:34:57.367Z,95963.61
2019-04-25T04:37:28.369Z,95970.81
2019-04-25T04:39:59.994Z,95972.91
2019-04-25T04:42:31.182Z,95968.08
2019-04-25T04:45:03.578Z,95967.90
2019-04-25T04:47:34.943Z,95965.64
2019-04-25T04:50:06.467Z,95958.31
2019-04-25T04:52:37.519Z,95958.38
2019-04-25T04:55:11.260Z,95958.72
2019-04-25T04:57:43.462Z,95948.41
2019-04-25T05:00:15.606Z,95949.67
2019-04-25T05:03:04.476Z,95947.79
2019-04-25T05:05:55.116Z,95952.95
2019-04-25T05:08:30.098Z,95953.45
2019-04-25T05:11:01.202Z,95951.32
2019-04-25T05:13:34.222Z,95954.83
2019-04-25T05:16:05.596Z,95959.65
2019-04-25T05:18:39.938Z,95954.88
2019-04-25T05:21:09.568Z,95965.03
2019-04-25T05:23:40.582Z,95963.55
2019-04-25T05:26:12.199Z,95964.22
2019-04-25T05:28:44.480Z,95961.63
2019-04-25T05:31:34.733Z,95959.28
2019-04-25T05:34:05.881Z,95960.00
2019-04-25T05:36:39.701Z,95957.20
2019-04-25T05:39:11.765Z,95955.54
2019-04-25T05:41:54.026Z,95957.86
2019-04-25T05:44:27.325Z,95955.94
2019-04-25T05:46:58.158Z,95955.26
2019-04-25T05:49:29.164Z,95965.06
2019-04-25T05:52:00.545Z,95956.54
2019-04-25T05:54:31.667Z,95955.14
2019-04-25T05:57:03.685Z,95951.48
2019-04-25T05:59:34.850Z,95949.09
2019-04-25T06:02:06.064Z,95948.42
2019-04-25T06:04:37.131Z,95938.42
2019-04-25T06:07:08.409Z,95935.88
2019-04-25T06:09:55.255Z,95922.37
2019-04-25T06:12:43.629Z,95933.20
2019-04-25T06:15:15.218Z,95938.45
2019-04-25T06:18:03.953Z,95943.50
2019-04-25T06:20:36.860Z,95942.77
2019-04-25T06:23:17.169Z,95940.10
2019-04-25T06:25:48.293Z,95932.70
2019-04-25T06:28:21.741Z,95936.89
2019-04-25T06:30:54.081Z,95933.86
2019-04-25T06:33:25.858Z,95928.50
2019-04-25T06:35:58.623Z,95943.55
2019-04-25T06:38:29.855Z,95951.65
2019-04-25T06:41:00.942Z,95942.00
2019-04-25T06:43:34.103Z,95935.22
2019-04-25T06:46:31.756Z,95936.74
2019-04-25T06:49:09.907Z,95929.52
2019-04-25T06:51:54.630Z,95930.75
2019-04-25T06:54:27.179Z,95925.85
2019-04-25T06:56:59.149Z,95937.41
2019-04-25T06:59:32.279Z,95934.75
2019-04-25T07:02:04.520Z,95932.36
2019-04-25T07:04:35.852Z,95936.16
2019-04-25T07:07:11.989Z,95925.25
2019-04-25T07:09:39.950Z,95928.03
2019-04-25T07:12:10.983Z,95930.51
2019-04-25T07:14:43.988Z,95917.86
2019-04-25T07:17:15.168Z,95911.59
2019-04-25T07:19:46.256Z,95911.96
2019-04-25T07:22:17.361Z,95916.89
2019-04-25T07:24:48.394Z,95912.02
2019-04-25T07:27:37.465Z,95909.23
2019-04-25T07:30:32.233Z,95906.36
2019-04-25T07:33:05.181Z,95904.30
2019-04-25T07:35:36.328Z,95908.13
2019-04-25T07:38:07.424Z,95903.94
2019-04-25T07:40:38.803Z,95889.62
2019-04-25T07:43:09.968Z,95889.11
2019-04-25T07:45:41.452Z,95888.59
2019-04-25T07:48:13.950Z,95886.47
2019-04-25T07:50:45.122Z,95891.55
2019-04-25T07:53:16.231Z,95885.72
2019-04-25T07:55:47.236Z,95892.88
2019-04-25T07:58:18.432Z,95894.20
2019-04-25T08:00:49.506Z,95894.97
2019-04-25T08:03:20.629Z,95890.71
2019-04-25T08:05:53.287Z,95893.58
2019-04-25T08:08:24.508Z,95889.27
2019-04-25T08:11:08.459Z,95898.27
2019-04-25T08:13:55.196Z,95902.52
2019-04-25T08:16:28.868Z,95892.05
2019-04-25T08:19:03.707Z,95888.82
2019-04-25T08:21:35.684Z,95876.50
2019-04-25T08:24:08.910Z,95879.93
2019-04-25T08:26:40.105Z,95871.84
2019-04-25T08:29:11.268Z,95874.41
2019-04-25T08:31:43.885Z,95861.17
2019-04-25T08:34:15.406Z,95859.58
2019-04-25T08:36:46.731Z,95865.42
2019-04-25T08:39:18.073Z,95864.10
2019-04-25T08:41:49.123Z,95868.38
2019-04-25T08:44:20.181Z,95869.03
2019-04-25T08:46:51.302Z,95872.01
2019-04-25T08:49:27.354Z,95868.72
2019-04-25T08:52:00.644Z,95867.30
2019-04-25T08:54:47.879Z,95856.52
2019-04-25T08:57:36.784Z,95858.07
2019-04-25T09:00:17.924Z,95854.03
2019-04-25T09:02:54.409Z,95851.28
2019-04-25T09:05:36.467Z,95853.28
2019-04-25T09:08:07.867Z,95853.80
2019-04-25T09:10:40.132Z,95859.39
2019-04-25T09:13:13.366Z,95856.24
2019-04-25T09:15:45.774Z,95849.87
2019-04-25T09:18:17.323Z,95839.58
2019-04-25T09:20:48.447Z,95836.50
2019-04-25T09:23:19.514Z,95827.45
2019-04-25T09:25:50.624Z,95827.39
2019-04-25T09:28:21.723Z,95823.20
2019-04-25T09:30:54.013Z,95824.91
2019-04-25T09:33:25.284Z,95821.23
2019-04-25T09:35:56.334Z,95828.02
2019-04-25T09:38:27.726Z,95821.09
2019-04-25T09:40:58.929Z,95819.51
2019-04-25T09:43:29.973Z,95806.09
2019-04-25T09:46:24.588Z,95813.45
2019-04-25T09:49:01.754Z,95804.70
2019-04-25T09:51:40.409Z,95802.69
2019-04-25T09:54:29.008Z,95790.42
2019-04-25T09:57:10.401Z,95787.75
2019-04-25T09:59:42.176Z,95793.59
2019-04-25T10:02:15.078Z,95779.44
2019-04-25T10:04:46.374Z,95772.96
2019-04-25T10:07:17.561Z,95784.73
2019-04-25T10:09:48.600Z,95783.36
2019-04-25T10:12:19.699Z,95777.41
2019-04-25T10:15:45.618Z,95784.47
2019-04-25T10:18:17.511Z,95780.45
2019-04-25T10:20:49.480Z,95765.59
2019-04-25T10:23:20.677Z,95764.59
2019-04-25T10:25:53.785Z,95766.37
2019-04-25T10:28:25.558Z,95755.33
2019-04-25T10:30:56.895Z,95757.95
2019-04-25T10:33:28.359Z,95752.81
2019-04-25T10:36:01.188Z,95746.53
2019-04-25T10:38:33.588Z,95746.31
2019-04-25T10:41:05.370Z,95733.98
2019-04-25T10:43:36.532Z,95732.26
2019-04-25T10:46:07.905Z,95726.42
2019-04-25T10:48:40.073Z,95720.81
2019-04-25T10:51:11.463Z,95720.50
2019-04-25T10:53:45.134Z,95707.75
2019-04-25T10:56:15.370Z,95709.67
2019-04-25T10:58:46.809Z,95714.66
2019-04-25T11:01:17.835Z,95722.39
2019-04-25T11:03:58.189Z,95717.19
2019-04-25T11:06:29.679Z,95717.87
2019-04-25T11:09:03.433Z,95718.13
2019-04-25T11:11:41.596Z,95718.69
2019-04-25T11:14:13.533Z,95710.22
2019-04-25T11:16:45.540Z,95697.17
2019-04-25T11:19:18.576Z,95702.45
2019-04-25T11:21:49.782Z,95700.17
2019-04-25T11:24:20.835Z,95692.30
2019-04-25T11:26:51.935Z,95689.47
2019-04-25T11:29:24.048Z,95697.22
2019-04-25T11:31:55.366Z,95699.81
2019-04-25T11:34:27.604Z,95696.68
2019-04-25T11:36:58.680Z,95689.47
2019-04-25T11:39:58.032Z,95691.98
2019-04-25T11:42:29.685Z,95692.48
2019-04-25T11:45:00.936Z,95691.76
2019-04-25T11:47:33.443Z,95692.56
2019-04-25T11:50:06.057Z,95687.41
2019-04-25T11:52:37.186Z,95685.03
2019-04-25T11:55:09.435Z,95681.11
2019-04-25T11:57:40.856Z,95681.42
2019-04-25T12:00:21.938Z,95682.66
2019-04-25T12:02:47.730Z,95678.56
2019-04-25T12:05:19.180Z,95662.97
2019-04-25T12:07:50.181Z,95669.72
2019-04-25T12:10:24.115Z,95673.17
2019-04-25T12:12:55.630Z,95668.12
2019-04-25T12:15:27.166Z,95664.53
2019-04-25T12:17:58.508Z,95665.66
2019-04-25T12:20:29.681Z,95662.88
2019-04-25T12:23:08.075Z,95656.23
2019-04-25T12:25:35.553Z,95654.31
2019-04-25T12:28:06.634Z,95660.97
2019-04-25T12:30:40.330Z,95644.36
2019-04-25T12:33:19.189Z,95645.05
2019-04-25T12:35:43.836Z,95650.13
2019-04-25T12:38:15.074Z,95640.77
2019-04-25T12:40:47.262Z,95628.16
2019-04-25T12:43:19.586Z,95625.70
2019-04-25T12:46:03.304Z,95627.22
2019-04-25T12:48:35.271Z,95619.20
2019-04-25T12:51:06.581Z,95626.24
2019-04-25T12:53:37.596Z,95623.55
2019-04-25T12:56:08.756Z,95624.26
2019-04-25T12:58:39.762Z,95617.84
2019-04-25T13:01:11.188Z,95612.77
2019-04-25T13:03:43.861Z,95612.51
2019-04-25T13:06:15.799Z,95606.33
2019-04-25T13:08:47.228Z,95605.20
2019-04-25T13:11:18.696Z,95602.81
2019-04-25T13:13:50.017Z,95600.21
2019-04-25T13:16:21.105Z,95597.52
2019-04-25T13:18:52.215Z,95597.03
2019-04-25T13:21:23.519Z,95600.40
2019-04-25T13:23:55.748Z,95591.39
2019-04-25T13:26:31.000Z,95590.91
2019-04-25T13:29:18.155Z,95592.01
2019-04-25T13:32:18.244Z,95599.45
2019-04-25T13:34:49.853Z,95586.75
2019-04-25T13:37:20.972Z,95595.74
2019-04-25T13:39:52.074Z,95585.61
2019-04-25T13:42:23.451Z,95583.41
2019-04-25T13:44:54.617Z,95585.51
2019-04-25T13:47:29.250Z,95579.90
2019-04-25T13:49:58.505Z,95573.09
2019-04-25T13:52:29.703Z,95587.91
2019-04-25T13:55:00.785Z,95583.23
2019-04-25T13:57:32.359Z,95578.99
2019-04-25T14:00:04.522Z,95581.27
2019-04-25T14:02:36.100Z,95571.55
2019-04-25T14:05:08.205Z,95563.64
2019-04-25T14:07:40.200Z,95563.04
2019-04-25T14:10:11.327Z,95564.09
2019-04-25T14:12:43.541Z,95567.20
2019-04-25T14:15:17.767Z,95560.77
2019-04-25T14:18:11.368Z,95549.70
2019-04-25T14:20:58.954Z,95556.59
2019-04-25T14:23:30.044Z,95559.52
2019-04-25T14:26:01.351Z,95560.77
2019-04-25T14:28:34.547Z,95554.77
2019-04-25T14:31:07.284Z,95549.98
2019-04-25T14:33:38.368Z,95542.45
2019-04-25T14:36:09.435Z,95537.06
2019-04-25T14:38:41.039Z,95547.65
2019-04-25T14:41:12.223Z,95546.83
2019-04-25T14:43:43.278Z,95547.77
2019-04-25T14:46:14.362Z,95544.70
2019-04-25T14:48:45.457Z,95532.39
2019-04-25T14:51:16.521Z,95541.99
2019-04-25T14:53:47.581Z,95541.36
2019-04-25T14:56:26.100Z,95540.75
2019-04-25T14:58:57.119Z,95543.08
2019-04-25T15:01:28.577Z,95538.78
2019-04-25T15:03:59.672Z,95544.36
2019-04-25T15:06:30.685Z,95535.49
2019-04-25T15:09:01.997Z,95546.17
2019-04-25T15:11:35.142Z,95541.33
2019-04-25T15:14:06.217Z,95541.95
2019-04-25T15:16:37.257Z,95541.02
2019-04-25T15:19:08.434Z,95541.73
2019-04-25T15:21:39.542Z,95541.52
2019-04-25T15:24:10.537Z,95550.83
2019-04-25T15:26:41.650Z,95546.17
2019-04-25T15:29:12.688Z,95546.72
2019-04-25T15:31:55.158Z,95549.18
2019-04-25T15:34:16.471Z,95541.52
2019-04-25T15:37:01.584Z,95549.23
2019-04-25T15:39:55.555Z,95545.95
2019-04-25T15:42:51.330Z,95540.23
2019-04-25T15:45:32.546Z,95543.17
2019-04-25T15:48:04.607Z,95539.28
2019-04-25T15:50:36.119Z,95539.71
2019-04-25T15:53:08.107Z,95541.03
2019-04-25T15:55:52.266Z,95533.19
2019-04-25T15:58:23.665Z,95527.76
2019-04-25T16:00:54.945Z,95527.94
2019-04-25T16:03:25.972Z,95524.30
2019-04-25T16:05:56.966Z,95519.84
2019-04-25T16:08:28.800Z,95524.38
2019-04-25T16:11:00.122Z,95529.98
2019-04-25T16:13:31.125Z,95524.04
2019-04-25T16:16:02.280Z,95537.09
2019-04-25T16:18:33.471Z,95535.91
2019-04-25T16:21:06.073Z,95541.59
2019-04-25T16:23:37.077Z,95538.44
2019-04-25T16:26:09.926Z,95530.45
2019-04-25T16:28:41.022Z,95531.16
2019-04-25T16:31:14.146Z,95530.69
2019-04-25T16:33:45.269Z,95529.36
2019-04-25T16:36:16.496Z,95536.39
2019-04-25T16:38:47.576Z,95540.65
2019-04-25T16:41:19.531Z,95541.13
2019-04-25T16:43:54.673Z,95536.19
2019-04-25T16:46:26.720Z,95538.16
2019-04-25T16:48:57.720Z,95537.26
2019-04-25T16:51:29.325Z,95535.63
2019-04-25T16:54:01.340Z,95531.27
2019-04-25T16:56:32.509Z,95529.39
2019-04-25T16:59:03.546Z,95534.41
2019-04-25T17:01:36.024Z,95535.14
2019-04-25T17:04:08.537Z,95536.23
2019-04-25T17:06:39.612Z,95536.72
2019-04-25T17:09:10.773Z,95541.44
2019-04-25T17:11:42.922Z,95541.98
2019-04-25T17:14:31.449Z,95543.56
2019-04-25T17:17:30.732Z,95540.22
2019-04-25T17:20:15.400Z,95542.98
2019-04-25T17:22:46.568Z,95545.41
2019-04-25T17:25:17.650Z,95550.27
2019-04-25T17:27:48.726Z,95553.34
2019-04-25T17:30:20.519Z,95564.14
2019-04-25T17:33:05.107Z,95571.54
2019-04-25T17:36:07.867Z,95583.22
2019-04-25T17:38:45.273Z,95590.89
2019-04-25T17:41:16.357Z,95601.75
2019-04-25T17:43:47.408Z,95614.38
2019-04-25T17:46:20.272Z,95604.83
2019-04-25T17:48:51.376Z,95612.94
2019-04-25T17:51:22.752Z,95606.49
2019-04-25T17:53:54.045Z,95602.36
2019-04-25T17:56:25.162Z,95620.95
2019-04-25T17:58:56.271Z,95632.97
2019-04-25T18:01:27.363Z,95635.60
2019-04-25T18:03:58.440Z,95649.69
2019-04-25T18:06:29.546Z,95644.77
2019-04-25T18:09:00.807Z,95648.42
2019-04-25T18:11:33.719Z,95647.02
2019-04-25T18:14:05.876Z,95653.50
2019-04-25T18:16:41.123Z,95662.92
2019-04-25T18:19:21.550Z,95662.23
2019-04-25T18:21:54.378Z,95680.76
2019-04-25T18:24:56.674Z,95679.83
2019-04-25T18:27:35.090Z,95690.24
2019-04-25T18:30:08.689Z,95687.37
2019-04-25T18:32:43.284Z,95700.28
2019-04-25T18:35:22.735Z,95701.38
2019-04-25T18:38:07.454Z,95705.44
2019-04-25T18:41:20.770Z,95719.70
2019-04-25T18:43:55.440Z,95725.06
2019-04-25T18:46:33.072Z,95732.61
2019-04-25T18:49:04.222Z,95734.70
2019-04-25T18:51:36.263Z,95745.52
2019-04-25T18:54:26.000Z,95746.40
2019-04-25T18:57:01.700Z,95745.66
2019-04-25T18:59:50.835Z,95752.92
2019-04-25T19:02:32.167Z,95756.69
2019-04-25T19:05:21.012Z,95772.19
2019-04-25T19:07:52.209Z,95781.28
2019-04-25T19:10:24.102Z,95791.16
2019-04-25T19:12:55.315Z,95791.78
2019-04-25T19:15:26.784Z,95802.71
2019-04-25T19:17:57.855Z,95808.58
2019-04-25T19:20:29.379Z,95810.73
2019-04-25T19:23:00.376Z,95801.95
2019-04-25T19:25:31.458Z,95807.52
2019-04-25T19:28:02.522Z,95824.02
2019-04-25T19:30:33.708Z,95825.61
2019-04-25T19:33:07.453Z,95825.59
2019-04-25T19:35:37.943Z,95822.41
2019-04-25T19:38:09.056Z,95831.97
2019-04-25T19:41:08.533Z,95830.31
2019-04-25T19:43:58.744Z,95832.86
2019-04-25T19:46:41.457Z,95833.95
2019-04-25T19:49:12.955Z,95850.81
2019-04-25T19:51:45.075Z,95851.05
2019-04-25T19:54:17.615Z,95856.38
2019-04-25T19:56:49.763Z,95856.61
2019-04-25T19:59:20.757Z,95880.13
2019-04-25T20:01:53.527Z,95864.12
2019-04-25T20:04:44.426Z,95862.53
2019-04-25T20:07:26.841Z,95871.47
2019-04-25T20:10:22.676Z,95879.16
2019-04-25T20:12:55.099Z,95881.89
2019-04-25T20:15:26.150Z,95886.66
2019-04-25T20:17:57.334Z,95896.23
2019-04-25T20:20:29.036Z,95903.82
2019-04-25T20:23:00.180Z,95908.95
2019-04-25T20:25:31.340Z,95918.32
2019-04-25T20:28:02.431Z,95924.27
2019-04-25T20:30:33.504Z,95923.66
2019-04-25T20:33:04.675Z,95923.11
2019-04-25T20:35:36.349Z,95925.69
2019-04-25T20:38:07.510Z,95925.02
2019-04-25T20:40:38.755Z,95921.27
2019-04-25T20:43:09.775Z,95923.92
2019-04-25T20:45:41.090Z,95943.61
2019-04-25T20:48:12.090Z,95952.52
2019-04-25T20:50:43.418Z,95955.77
2019-04-25T20:53:14.676Z,95975.47
2019-04-25T20:55:46.484Z,95965.88
2019-04-25T20:58:18.524Z,95967.99
2019-04-25T21:00:52.443Z,95974.98
2019-04-25T21:03:23.750Z,95970.72
2019-04-25T21:05:57.231Z,95994.52
2019-04-25T21:08:28.290Z,96003.61
2019-04-25T21:10:59.308Z,96010.53
2019-04-25T21:13:38.784Z,96004.72
2019-04-25T21:16:45.699Z,96004.03
2019-04-25T21:19:19.501Z,96007.13
2019-04-25T21:21:50.579Z,95999.19
2019-04-25T21:24:21.756Z,96005.23
2019-04-25T21:26:52.768Z,96016.13
2019-04-25T21:29:24.112Z,96028.84
2019-04-25T21:31:55.184Z,96025.92
2019-04-25T21:34:30.906Z,96014.29
2019-04-25T21:36:59.731Z,96011.67
2019-04-25T21:39:43.526Z,96014.29
2019-04-25T21:42:39.168Z,96004.55
2019-04-25T21:45:11.040Z,96008.45
2019-04-25T21:47:42.077Z,96014.56
2019-04-25T21:50:13.760Z,96008.19
2019-04-25T21:52:44.946Z,96017.12
2019-04-25T21:55:16.300Z,96014.14
2019-04-25T21:57:47.494Z,96005.63
2019-04-25T22:00:37.481Z,95996.88
2019-04-25T22:03:10.528Z,96002.65
2019-04-25T22:05:42.984Z,96008.38
2019-04-25T22:08:14.971Z,96023.44
2019-04-25T22:10:46.101Z,96040.19
2019-04-25T22:13:18.300Z,96043.41
2019-04-25T22:15:50.164Z,96040.30
2019-04-25T22:18:21.429Z,96048.67
2019-04-25T22:20:52.479Z,96048.56
2019-04-25T22:23:23.563Z,96050.61
2019-04-25T22:25:54.801Z,96045.79
2019-04-25T22:28:26.098Z,96042.43
2019-04-25T22:31:07.630Z,96034.46
2019-04-25T22:33:48.257Z,96045.31
2019-04-25T22:36:21.441Z,96053.21
2019-04-25T22:39:11.669Z,96058.02
2019-04-25T22:41:47.010Z,96049.52
2019-04-25T22:44:20.566Z,96036.76
2019-04-25T22:46:51.868Z,96032.48
2019-04-25T22:49:23.311Z,96032.18
2019-04-25T22:51:54.450Z,96036.38
2019-04-25T22:54:27.278Z,96031.92
2019-04-25T22:56:58.352Z,96045.17
2019-04-25T22:59:29.541Z,96045.91
2019-04-25T23:02:14.775Z,96040.24
2019-04-25T23:05:04.701Z,96040.86
2019-04-25T23:07:26.039Z,96032.05
2019-04-25T23:09:57.612Z,96042.34
2019-04-25T23:12:29.097Z,96047.94
2019-04-25T23:15:00.115Z,96053.53
2019-04-25T23:17:31.114Z,96034.03
2019-04-25T23:20:03.368Z,96025.59
2019-04-25T23:22:36.624Z,96044.81
2019-04-25T23:25:10.667Z,96053.81
2019-04-25T23:27:59.401Z,96054.90
2019-04-25T23:30:38.679Z,96054.16
2019-04-25T23:33:10.725Z,96041.19
2019-04-25T23:35:42.326Z,96030.09
2019-04-25T23:38:14.725Z,96017.19
2019-04-25T23:40:46.234Z,96014.02
2019-04-25T23:43:17.479Z,96013.26
2019-04-25T23:45:48.498Z,95993.19
2019-04-25T23:48:19.708Z,96001.10
2019-04-25T23:50:53.485Z,96004.16
2019-04-25T23:53:23.494Z,96006.27
2019-04-25T23:55:54.511Z,96013.45
2019-04-25T23:58:25.516Z,96027.02
